Terminal Aerodrome Forecast
Issued by NWS

Home | Current Version | Previous Version | Text Only | Print | Product List | Glossary On
Versions: 1 2 3 4 5 6 7 8 9 10 11 12 13
000
FTUS44 KLUB 300155 AAA
TAFCDS
TAF AMD
KCDS 300155Z 3002/3024 06008KT P6SM FEW060
      TEMPO 3002/3004 -TSRA SCT050CB=

USA.gov is the U.S. government's official web portal to all federal, state and local government web resources and services.